Terminal Aerodrome Forecast
Issued by NWS

Current Version | Previous Version | Graphics & Text | Print | Product List | Glossary On
Versions: 1 2 3 4 5 6 7 8 9 10 11 12 13 14 15 16 17 18 19 20 21
000
FTUS41 KILN 300900 AAA
TAFLUK
TAF AMD
KLUK 300906Z 3009/3106 00000KT 2SM BR SCT040
      TEMPO 3009/3012 1/2SM FG VV002
     FM301500 26008KT P6SM BKN040
     FM302300 VRB03KT P6SM SCT080=

USA.gov is the U.S. government's official web portal to all federal, state and local government web resources and services.